Bassetts, California
Current Conditions -  °F | °C
As of 12:52 AM on Wednesday 22 Oct 2014 (Local Time) from KBLU Reporting Station
Clear Clear  
Wind Chill: 48°   Ceiling: Unl
Heat Index: 48°   Visibility: 10mi
Dew Point: 25°   Wind: 0mph
Humidity: 41%   Direction: NA
Pressure: 30.12"   Gusts: NA
Location:  39.5538°N, 120.638°W
Report Text: KBLU 220752Z AUTO 00000KT 10SM CLR 09/M04 A3012 RMK AO2 SLP161 T00891039 401220011
Loading
Personal Weather Stations






























Interactive Weather Map
Tropical Storm Tracking
New forecast layout! Learn more

10-Day Weather Forecast

Advertisements
Track Severe Weather on mobile